Time;durP1;ratioP1;P1;durP2;ratioP2;P2;SDS_P1;SDS_P2;PMS_P1;PMS_P2;Temp;Humidity;BMP_temperature;BMP_pressure;BME280_temperature;BME280_humidity;BME280_pressure;Samples;Min_cycle;Max_cycle;Signal;HPM_P1;HPM_P2
2023/01/04 00:00:40;;;;;;;13.98;7.93;;;;;;;8.31;59.72;101121.75;7685482;32;40058;-82
2023/01/04 00:04:56;;;;;;;14.35;7.57;;;;;;;7.43;61.89;101142.50;7685392;32;38815;-83
2023/01/04 00:09:13;;;;;;;14.15;7.60;;;;;;;8.07;59.80;101135.97;7684504;32;37900;-82
2023/01/04 00:13:33;;;;;;;11.88;6.28;;;;;;;8.40;59.08;101131.25;7686893;32;40026;-82
2023/01/04 00:17:49;;;;;;;12.48;7.22;;;;;;;8.45;58.90;101135.03;7685191;32;39988;-82
2023/01/04 00:22:06;;;;;;;15.73;7.15;;;;;;;8.21;59.21;101122.25;7685205;32;37476;-82
2023/01/04 00:26:31;;;;;;;14.48;7.10;;;;;;;8.08;59.64;101134.09;7684029;32;36942;-82
2023/01/04 00:30:48;;;;;;;15.93;8.07;;;;;;;8.00;59.59;101126.22;7685219;32;39889;-82
2023/01/04 00:35:11;;;;;;;13.05;7.28;;;;;;;8.12;59.30;101132.56;7685123;32;40727;-82
2023/01/04 00:39:47;;;;;;;;;;;;;;;8.03;59.81;101128.50;7685152;32;37948;-82
2023/01/04 00:44:05;;;;;;;13.93;7.72;;;;;;;7.83;60.27;101132.19;7693816;32;37375;-81
2023/01/04 00:48:22;;;;;;;13.40;6.75;;;;;;;8.11;59.23;101141.78;7711598;32;39700;-82
2023/01/04 00:52:38;;;;;;;13.52;7.07;;;;;;;8.28;58.81;101136.62;7711393;32;40044;-82
2023/01/04 00:56:54;;;;;;;11.25;6.90;;;;;;;7.84;59.69;101133.84;7711346;32;36845;-82
2023/01/04 01:01:11;;;;;;;14.82;7.47;;;;;;;7.68;59.63;101135.22;7710316;32;37566;-83
2023/01/04 01:05:27;;;;;;;12.40;6.35;;;;;;;8.23;58.29;101134.56;7711380;32;39536;-82
2023/01/04 01:09:44;;;;;;;13.68;7.00;;;;;;;8.20;58.31;101124.16;7711293;32;39602;-82
2023/01/04 01:14:00;;;;;;;13.62;7.78;;;;;;;8.35;57.77;101133.84;7704119;32;38457;-82
2023/01/04 01:18:16;;;;;;;13.38;6.97;;;;;;;7.96;58.48;101133.16;7684466;32;37296;-81
2023/01/04 01:22:35;;;;;;;15.15;7.70;;;;;;;8.07;58.21;101144.12;7684659;32;39335;-82
2023/01/04 01:26:51;;;;;;;14.87;7.40;;;;;;;7.94;58.21;101138.78;7684659;32;40137;-82
2023/01/04 01:31:21;;;;;;;13.02;7.53;;;;;;;8.18;57.56;101139.03;7684348;32;38066;-82
2023/01/04 01:35:45;;;;;;;12.45;6.78;;;;;;;7.67;58.89;101144.41;7684561;32;36793;-81
2023/01/04 01:40:01;;;;;;;13.45;6.78;;;;;;;7.79;58.61;101149.16;7684516;32;40574;-81
2023/01/04 01:44:45;;;;;;;11.88;7.03;;;;;;;7.74;58.27;101149.78;7691392;32;39583;-81
2023/01/04 01:49:27;;;;;;;10.52;5.95;;;;;;;7.87;58.11;101146.16;7692340;32;36827;-81
2023/01/04 01:53:45;;;;;;;12.63;6.90;;;;;;;7.82;57.99;101146.00;7684198;32;37367;-81
2023/01/04 01:58:04;;;;;;;12.52;6.57;;;;;;;7.67;58.32;101160.69;7684518;32;38232;-81
2023/01/04 02:02:20;;;;;;;16.02;7.20;;;;;;;7.79;58.06;101144.53;7682859;32;39829;-81
2023/01/04 02:06:40;;;;;;;12.45;7.60;;;;;;;7.90;57.50;101138.41;7683841;32;38720;-81
2023/01/04 02:10:56;;;;;;;14.68;7.55;;;;;;;7.76;58.04;101138.72;7682701;32;37965;-80
2023/01/04 02:15:13;;;;;;;12.93;7.53;;;;;;;7.86;57.75;101142.63;7683724;32;40026;-81
2023/01/04 02:20:03;;;;;;;14.38;7.65;;;;;;;7.65;58.28;101140.25;7683365;32;40392;-82
2023/01/04 02:24:41;;;;;;;13.60;7.50;;;;;;;7.23;59.26;101143.44;7683446;32;38685;-81
2023/01/04 02:29:27;;;;;;;13.30;6.97;;;;;;;7.14;59.60;101142.84;7683484;32;37946;-81
2023/01/04 02:33:53;;;;;;;13.18;7.72;;;;;;;6.80;60.44;101141.31;7698677;32;39081;-81
2023/01/04 02:38:22;;;;;;;14.32;7.07;;;;;;;6.95;60.00;101133.75;7713132;32;39858;-81
2023/01/04 02:52:23;;;;;;;13.77;7.90;;;;;;;6.94;59.73;101139.41;7685171;32;39246;-82
2023/01/04 02:57:11;;;;;;;13.50;7.60;;;;;;;6.71;60.95;101127.19;7700900;32;40718;-81
2023/01/04 03:06:57;;;;;;;14.93;8.15;;;;;;;6.46;60.88;101131.63;7710491;32;37207;-81
2023/01/04 07:25:51;;;;;;;106.63;13.52;;;;;;;5.23;64.40;101179.59;7859494;26;171307;-85
2023/01/04 07:30:08;;;;;;;154.75;14.55;;;;;;;4.31;66.54;101188.81;7730507;32;37638;-85
2023/01/04 07:34:25;;;;;;;108.75;12.75;;;;;;;4.62;65.81;101183.03;7729999;32;37325;-76
2023/01/04 07:38:42;;;;;;;153.30;14.60;;;;;;;4.85;67.66;101190.84;7731062;32;38914;-84
2023/01/04 07:42:58;;;;;;;147.65;13.10;;;;;;;4.91;66.41;101197.31;7731045;32;39887;-79
2023/01/04 07:47:15;;;;;;;93.95;12.05;;;;;;;5.14;67.10;101194.31;7731320;32;38808;-86
2023/01/04 07:51:32;;;;;;;97.90;13.18;;;;;;;5.10;65.60;101187.62;7731041;32;37267;-83
2023/01/04 07:55:53;;;;;;;65.50;11.32;;;;;;;5.02;64.96;101204.03;7730937;32;39795;-84
2023/01/04 08:00:10;;;;;;;83.05;10.85;;;;;;;5.03;64.32;101198.41;7730826;32;39662;-84
2023/01/04 08:04:26;;;;;;;47.17;10.50;;;;;;;4.83;65.26;101192.06;7730667;32;37920;-87
2023/01/04 08:08:49;;;;;;;36.22;10.68;;;;;;;4.93;65.40;101194.41;7717700;32;37897;-84
2023/01/04 08:13:06;;;;;;;62.90;11.93;;;;;;;4.99;65.63;101190.94;7730683;32;39312;-84
2023/01/04 08:17:22;;;;;;;78.65;12.15;;;;;;;4.73;66.27;101197.84;7730506;32;39886;-85
2023/01/04 08:21:38;;;;;;;84.55;12.80;;;;;;;5.05;65.48;101203.63;7730788;32;37703;-85
2023/01/04 08:25:54;;;;;;;111.72;13.57;;;;;;;4.68;65.92;101200.31;7730268;32;37233;-84
2023/01/04 08:30:11;;;;;;;77.80;11.23;;;;;;;4.73;66.10;101202.44;7721562;32;39873;-85
2023/01/04 08:34:28;;;;;;;94.10;12.40;;;;;;;5.03;66.15;101203.00;7712604;32;39623;-85
2023/01/04 08:38:49;;;;;;;55.05;10.32;;;;;;;5.16;65.59;101197.66;7712409;32;38140;-85
2023/01/04 08:43:20;;;;;;;69.78;10.93;;;;;;;5.05;65.92;101198.22;7712401;32;37179;-84
2023/01/04 08:47:37;;;;;;;96.53;11.40;;;;;;;4.80;66.72;101198.72;7712388;32;40271;-85
2023/01/04 08:51:53;;;;;;;45.12;10.50;;;;;;;4.88;66.72;101206.66;7712320;32;39519;-85
2023/01/04 08:56:10;;;;;;;41.83;10.30;;;;;;;5.17;65.83;101201.19;7712162;32;38687;-85
2023/01/04 09:00:26;;;;;;;67.62;10.70;;;;;;;5.20;65.48;101203.50;7712081;32;37205;-87
2023/01/04 09:04:43;;;;;;;104.97;12.05;;;;;;;5.27;65.15;101204.34;7712030;32;39146;-84
2023/01/04 09:08:59;;;;;;;143.10;12.93;;;;;;;5.19;65.95;101199.09;7711723;32;40583;-84
2023/01/04 09:13:15;;;;;;;161.93;13.70;;;;;;;5.24;65.14;101200.19;7711590;32;37633;-84
2023/01/04 09:17:31;;;;;;;53.65;11.90;;;;;;;5.35;65.33;101200.66;7711712;32;37166;-84
2023/01/04 09:21:48;;;;;;;70.57;12.20;;;;;;;5.55;64.93;101192.56;7711661;32;39970;-84
2023/01/04 09:26:07;;;;;;;37.55;10.48;;;;;;;5.70;65.48;101190.53;7711509;32;39825;-85
2023/01/04 09:30:25;;;;;;;68.57;12.70;;;;;;;5.63;65.82;101181.56;7711737;32;37965;-85
2023/01/04 09:34:41;;;;;;;44.35;11.50;;;;;;;5.60;66.44;101177.38;7711726;32;37641;-85
2023/01/04 09:38:57;;;;;;;45.42;11.65;;;;;;;5.61;66.02;101178.25;7711464;32;39933;-85
2023/01/04 09:43:19;;;;;;;92.22;13.05;;;;;;;5.86;65.78;101173.06;7710572;32;39035;-84
2023/01/04 09:47:45;;;;;;;102.28;14.50;;;;;;;6.03;65.12;101159.16;7697442;32;37732;-84
2023/01/04 09:52:37;;;;;;;45.75;12.18;;;;;;;6.15;65.09;101161.03;7698497;32;37849;-83
2023/01/04 09:56:57;;;;;;;37.53;11.77;;;;;;;6.26;64.59;101154.16;7709836;32;39937;-85
2023/01/04 10:01:15;;;;;;;67.87;12.65;;;;;;;6.11;66.95;101143.53;7697893;32;39992;-84
2023/01/04 10:05:33;;;;;;;42.33;12.65;;;;;;;6.59;65.19;101147.84;7711034;32;38051;-84
2023/01/04 10:09:49;;;;;;;100.30;16.02;;;;;;;6.28;65.87;101143.94;7697575;32;37031;-85
2023/01/04 10:14:21;;;;;;;119.97;15.48;;;;;;;6.44;65.11;101129.13;7711361;32;39104;-84
2023/01/04 10:19:01;;;;;;;143.13;16.90;;;;;;;6.43;66.02;101134.75;7711032;32;39911;-85
2023/01/04 10:23:58;;;;;;;309.87;22.05;;;;;;;6.45;65.62;101119.97;7710371;32;39615;-85
2023/01/04 10:28:42;;;;;;;35.50;15.38;;;;;;;6.71;65.13;101119.03;7711219;32;38045;-84
2023/01/04 10:33:10;;;;;;;83.55;15.60;;;;;;;6.70;66.30;101111.94;7707405;32;40087;-84
2023/01/04 10:37:36;;;;;;;77.47;16.83;;;;;;;6.97;66.18;101117.28;7708835;32;39555;-84
2023/01/04 10:41:59;;;;;;;121.95;18.23;;;;;;;7.00;66.01;101103.28;7708719;32;38694;-84
2023/01/04 10:46:25;;;;;;;94.62;16.75;;;;;;;7.17;65.69;101089.22;7709401;32;36812;-84
2023/01/04 10:50:55;;;;;;;116.12;17.20;;;;;;;7.09;64.62;101080.28;7697556;32;39749;-84
2023/01/04 10:55:37;;;;;;;151.15;19.40;;;;;;;6.37;66.11;101080.38;7709460;32;40590;-84
2023/01/04 11:00:16;;;;;;;42.80;17.20;;;;;;;6.51;66.68;101070.31;7697960;32;37589;-84
2023/01/04 11:04:43;;;;;;;62.03;15.80;;;;;;;6.64;67.57;101080.31;7703510;32;38018;-84
2023/01/04 11:09:10;;;;;;;34.92;14.30;;;;;;;7.10;67.08;101070.28;7709092;32;40007;-84
2023/01/04 11:13:28;;;;;;;73.12;15.50;;;;;;;7.23;66.71;101066.66;7697256;32;40097;-85
2023/01/04 11:17:45;;;;;;;52.70;15.55;;;;;;;6.86;66.87;101066.44;7709018;32;37892;-85
2023/01/04 11:22:07;;;;;;;33.60;15.98;;;;;;;7.41;66.04;101044.19;7696004;32;38119;-84
2023/01/04 11:26:33;;;;;;;34.15;16.95;;;;;;;7.85;65.12;101035.06;7708849;32;39128;-85
2023/01/04 11:31:10;;;;;;;28.55;16.77;;;;;;;8.02;64.97;101037.19;7709310;32;40897;-85
2023/01/04 11:35:39;;;;;;;34.08;18.40;;;;;;;8.09;64.31;101029.81;7708683;32;38026;-84
2023/01/04 11:40:22;;;;;;;53.05;17.08;;;;;;;8.35;64.00;101019.72;7709230;32;38162;-85
2023/01/04 11:44:40;;;;;;;29.77;16.67;;;;;;;7.87;64.25;101024.81;7705378;32;39139;-85
2023/01/04 11:48:57;;;;;;;46.22;17.20;;;;;;;8.37;63.44;101017.59;7696029;32;40835;-85
2023/01/04 11:53:39;;;;;;;43.35;18.73;;;;;;;8.44;63.13;101018.38;7708905;32;38563;-85
2023/01/04 11:58:13;;;;;;;52.85;17.95;;;;;;;8.57;63.18;100999.19;7707185;32;37890;-87
2023/01/04 12:02:29;;;;;;;59.15;18.77;;;;;;;8.30;63.63;101006.81;7725992;32;40009;-85
2023/01/04 12:07:18;;;;;;;55.33;17.20;;;;;;;8.06;65.24;100994.97;7706866;32;41213;-84
2023/01/04 12:11:38;;;;;;;45.60;19.48;;;;;;;8.45;64.69;100981.97;7685583;32;36914;-85
2023/01/04 12:16:17;;;;;;;60.92;19.25;;;;;;;8.77;63.91;100968.19;7685996;32;36827;-85
2023/01/04 12:20:34;;;;;;;49.67;20.17;;;;;;;8.70;62.33;100972.91;7684585;32;39919;-82
2023/01/04 12:24:52;;;;;;;52.92;19.85;;;;;;;8.50;63.53;100965.00;7695230;32;40245;-86
2023/01/04 12:29:21;;;;;;;47.13;19.20;;;;;;;8.60;62.39;100957.12;7685653;32;37656;-84
2023/01/04 12:33:38;;;;;;;100.87;21.00;;;;;;;8.57;61.96;100933.97;7685784;32;37918;-84
2023/01/04 12:37:55;;;;;;;100.03;20.67;;;;;;;8.53;63.36;100924.59;7685623;32;39197;-84
2023/01/04 12:42:16;;;;;;;187.10;22.83;;;;;;;8.23;63.29;100924.56;7685624;32;39632;-85
2023/01/04 12:51:23;;;;;;;107.47;20.15;;;;;;;8.73;62.49;100920.78;7694532;32;37981;-84
2023/01/04 12:55:53;;;;;;;153.73;21.85;;;;;;;8.14;65.01;100924.03;7685460;32;39979;-85
2023/01/04 13:00:11;;;;;;;154.23;22.90;;;;;;;8.30;63.82;100929.91;7685295;32;40906;-84
2023/01/04 13:04:40;;;;;;;62.92;20.95;;;;;;;8.18;64.22;100911.66;7685340;32;38058;-85
2023/01/04 13:08:56;;;;;;;80.93;19.33;;;;;;;8.44;64.42;100905.06;7685375;32;37868;-84
2023/01/04 13:13:40;;;;;;;164.32;22.15;;;;;;;8.35;64.95;100890.13;7696475;32;39966;-84
2023/01/04 13:17:57;;;;;;;171.43;21.58;;;;;;;8.11;65.13;100893.81;7685025;32;39990;-85
2023/01/04 13:22:26;;;;;;;70.90;20.20;;;;;;;8.06;64.75;100891.75;7685080;32;39171;-84
2023/01/04 13:26:47;;;;;;;115.07;20.52;;;;;;;8.00;64.78;100882.66;7710328;32;37085;-85
2023/01/04 13:31:03;;;;;;;138.23;21.73;;;;;;;8.02;64.31;100868.81;7710540;32;38843;-84
2023/01/04 13:35:19;;;;;;;74.37;19.58;;;;;;;7.68;65.21;100860.25;7711597;32;39983;-84
2023/01/04 13:39:43;;;;;;;38.50;20.30;;;;;;;7.88;65.48;100866.28;7710566;32;38048;-85
2023/01/04 13:44:14;;;;;;;31.67;18.30;;;;;;;8.59;68.56;100853.00;7712247;32;37233;-80
2023/01/04 13:48:36;;;;;;;27.05;16.90;;;;;;;12.45;55.75;100821.62;7710487;32;39254;-81
2023/01/04 13:52:52;;;;;;;29.70;16.77;;;;;;;17.65;40.83;100810.59;7711333;32;40848;-85
2023/01/04 13:57:21;;;;;;;24.80;16.17;;;;;;;20.61;35.55;100793.66;7711517;32;38616;-88
2023/01/04 14:01:45;;;;;;;27.83;16.83;;;;;;;22.66;31.01;100770.28;7711641;32;36763;-86
2023/01/04 14:06:13;;;;;;;22.73;15.45;;;;;;;21.85;29.84;100763.41;7711799;32;39256;-85
2023/01/04 14:10:30;;;;;;;24.80;16.65;;;;;;;23.03;28.33;100765.09;7711404;32;40826;-86
2023/01/04 14:14:57;;;;;;;24.92;16.90;;;;;;;23.43;27.64;100748.09;7711397;32;38802;-87
2023/01/04 14:19:40;;;;;;;30.33;18.23;;;;;;;21.26;28.65;100760.91;7711376;32;36943;-86
2023/01/04 14:23:56;;;;;;;31.95;20.05;;;;;;;20.13;30.37;100761.03;7711094;32;39709;-86
2023/01/04 14:28:23;;;;;;;32.92;19.58;;;;;;;17.31;35.59;100769.37;7709299;32;39932;-86
2023/01/04 14:32:39;;;;;;;31.45;19.75;;;;;;;16.18;38.17;100780.56;7711204;32;37943;-86
2023/01/04 14:37:03;;;;;;;33.33;21.08;;;;;;;14.82;42.12;100773.06;7711340;32;36999;-86
2023/01/04 14:41:24;;;;;;;31.83;19.23;;;;;;;14.67;42.67;100778.56;7709899;32;39000;-86
2023/01/04 14:45:40;;;;;;;29.83;18.92;;;;;;;14.35;42.85;100779.66;7710943;32;39847;-79
2023/01/04 14:49:56;;;;;;;27.77;17.77;;;;;;;13.56;45.15;100780.81;7710867;32;38040;-86
2023/01/04 14:54:13;;;;;;;26.90;16.27;;;;;;;13.08;46.53;100773.41;7710832;32;37411;-85
2023/01/04 14:58:39;;;;;;;22.42;14.30;;;;;;;12.58;47.89;100764.56;7710772;32;39416;-86
2023/01/04 15:02:55;;;;;;;20.73;12.27;;;;;;;11.98;49.20;100769.22;7710592;32;40522;-86
2023/01/04 15:07:34;;;;;;;17.02;10.65;;;;;;;11.80;49.43;100777.75;7710537;32;38043;-86
2023/01/04 15:11:51;;;;;;;22.58;15.23;;;;;;;11.31;49.65;100772.22;7709360;32;37169;-85
2023/01/04 15:16:09;;;;;;;20.80;10.68;;;;;;;10.82;51.36;100765.53;7710056;32;39939;-85
2023/01/04 15:20:28;;;;;;;16.08;9.75;;;;;;;10.34;52.81;100764.19;7709769;32;40097;-85
2023/01/04 15:24:44;;;;;;;18.75;12.52;;;;;;;10.32;52.53;100755.44;7709783;32;38114;-85
2023/01/04 15:29:01;;;;;;;17.98;10.55;;;;;;;10.02;53.61;100761.12;7709964;32;37044;-86
2023/01/04 15:33:17;;;;;;;33.50;17.25;;;;;;;9.85;55.54;100758.38;7709889;32;39101;-85
2023/01/04 15:37:33;;;;;;;25.83;14.43;;;;;;;9.44;56.15;100758.41;7709836;32;40543;-85
2023/01/04 15:46:24;;;;;;;22.25;10.90;;;;;;;8.86;56.22;100749.25;7713042;32;37526;-85
2023/01/04 15:50:41;;;;;;;17.83;10.00;;;;;;;8.60;56.96;100743.22;7712905;32;39249;-85
2023/01/04 15:54:57;;;;;;;24.67;11.30;;;;;;;8.62;56.93;100732.94;7712790;32;40502;-84
2023/01/04 15:59:13;;;;;;;22.80;12.52;;;;;;;8.53;57.15;100734.34;7712762;32;38638;-85
2023/01/04 16:03:29;;;;;;;15.60;8.70;;;;;;;8.04;57.11;100736.38;7712631;32;37059;-86
2023/01/04 16:07:47;;;;;;;15.75;8.73;;;;;;;8.21;57.62;100729.19;7712984;32;37860;-85
2023/01/04 16:16:41;;;;;;;22.58;9.27;;;;;;;8.38;58.48;100725.78;7711585;32;37580;-85
2023/01/04 16:20:58;;;;;;;20.00;10.20;;;;;;;8.07;59.26;100709.56;7711537;32;36765;-85
2023/01/04 16:25:16;;;;;;;21.75;12.35;;;;;;;8.04;59.65;100706.50;7711271;32;39928;-84
2023/01/04 16:29:33;;;;;;;22.30;13.18;;;;;;;8.14;57.96;100697.75;7712021;32;38472;-84
2023/01/04 16:33:53;;;;;;;20.50;12.20;;;;;;;7.62;60.26;100695.59;7711861;32;38457;-84
2023/01/04 16:38:09;;;;;;;29.73;14.93;;;;;;;7.68;59.82;100678.41;7712889;32;37632;-85
2023/01/04 16:42:25;;;;;;;22.65;12.23;;;;;;;7.42;58.73;100674.19;7712489;32;39722;-84
2023/01/04 16:46:43;;;;;;;11.43;6.93;;;;;;;7.46;60.27;100678.09;7712612;32;40891;-84
2023/01/04 16:51:00;;;;;;;13.10;7.22;;;;;;;7.72;60.41;100661.41;7711507;32;39032;-84
2023/01/04 16:55:16;;;;;;;10.68;6.95;;;;;;;7.59;60.81;100658.06;7710350;32;36966;-84
2023/01/04 16:59:39;;;;;;;14.63;8.67;;;;;;;7.79;60.09;100668.63;7710836;32;39268;-87
2023/01/04 17:03:57;;;;;;;13.40;8.07;;;;;;;7.79;60.21;100657.78;7710786;32;41200;-84
2023/01/04 17:08:13;;;;;;;18.98;8.23;;;;;;;8.04;59.16;100654.91;7710759;32;37832;-83
2023/01/04 17:12:30;;;;;;;12.55;7.15;;;;;;;8.16;58.76;100649.44;7710841;32;37814;-84
2023/01/04 17:17:03;;;;;;;;;;;;;;;7.53;61.20;100649.78;7709864;32;40107;-84
2023/01/04 17:21:22;;;;;;;20.77;10.65;;;;;;;8.03;60.31;100636.94;7711085;32;40815;-84
2023/01/04 17:25:49;;;;;;;18.70;10.35;;;;;;;8.30;60.03;100636.50;7710163;32;37595;-84
2023/01/04 17:30:07;;;;;;;14.50;8.52;;;;;;;8.50;59.14;100615.22;7710593;32;37189;-83
2023/01/04 17:34:25;;;;;;;12.98;7.65;;;;;;;8.69;58.80;100609.66;7710861;32;40422;-84
2023/01/04 17:38:41;;;;;;;11.00;7.00;;;;;;;8.67;58.99;100603.63;7710907;32;39608;-84
2023/01/04 17:42:58;;;;;;;14.20;7.60;;;;;;;8.85;58.60;100611.66;7710669;32;36667;-84
2023/01/04 17:47:14;;;;;;;13.00;8.38;;;;;;;9.09;58.04;100603.41;7710707;32;36951;-84
2023/01/04 17:51:31;;;;;;;10.65;6.70;;;;;;;9.16;57.82;100604.09;7710512;32;39335;-84
2023/01/04 17:55:47;;;;;;;12.85;6.90;;;;;;;9.37;57.13;100603.41;7710294;32;40814;-84
2023/01/04 18:00:05;;;;;;;11.38;6.87;;;;;;;9.66;56.31;100611.56;7710247;32;39462;-84
2023/01/04 18:04:21;;;;;;;9.90;5.85;;;;;;;9.40;57.13;100619.25;7707781;32;37551;-83
2023/01/04 18:08:38;;;;;;;10.15;6.32;;;;;;;9.31;57.90;100611.72;7710414;32;37999;-84
2023/01/04 18:12:54;;;;;;;12.57;6.93;;;;;;;9.35;57.53;100593.84;7710163;32;40734;-84
2023/01/04 18:17:11;;;;;;;11.50;6.55;;;;;;;9.30;57.82;100570.09;7710094;32;37910;-84
2023/01/04 18:21:29;;;;;;;10.77;6.50;;;;;;;9.64;57.35;100569.28;7709919;32;37546;-84
2023/01/04 18:25:46;;;;;;;12.10;6.82;;;;;;;9.78;56.87;100560.56;7710058;32;40054;-84
2023/01/04 18:30:02;;;;;;;11.48;7.28;;;;;;;9.77;57.05;100548.00;7711005;32;41318;-84
2023/01/04 18:34:19;;;;;;;13.55;8.23;;;;;;;9.73;57.08;100567.84;7711052;32;37911;-85
2023/01/04 18:38:35;;;;;;;11.88;7.12;;;;;;;9.65;57.58;100562.78;7710358;32;36719;-85
2023/01/04 18:42:51;;;;;;;12.65;7.50;;;;;;;9.50;58.46;100552.44;7711002;32;39762;-85
2023/01/04 18:47:07;;;;;;;11.02;6.55;;;;;;;9.61;58.27;100546.13;7710959;32;40029;-84
2023/01/04 18:51:25;;;;;;;12.32;6.43;;;;;;;9.84;58.45;100536.94;7710858;32;38001;-85
2023/01/04 18:55:41;;;;;;;9.15;5.80;;;;;;;9.63;58.54;100524.91;7710801;32;37896;-84
2023/01/04 18:59:58;;;;;;;10.77;6.32;;;;;;;9.66;58.72;100513.53;7710548;32;39972;-86
2023/01/04 19:04:16;;;;;;;12.05;7.05;;;;;;;9.86;59.10;100504.03;7710658;32;40008;-86
2023/01/04 19:08:32;;;;;;;11.20;6.55;;;;;;;9.92;58.41;100497.59;7710012;32;37889;-85
2023/01/04 19:12:49;;;;;;;10.23;6.30;;;;;;;9.75;59.54;100494.87;7709945;32;37053;-83
2023/01/04 19:17:05;;;;;;;13.62;8.05;;;;;;;9.95;58.89;100494.34;7710116;32;39707;-82
2023/01/04 19:21:21;;;;;;;13.23;7.40;;;;;;;9.36;60.14;100492.88;7709004;32;39631;-83
2023/01/04 19:25:38;;;;;;;13.35;7.60;;;;;;;9.69;59.48;100479.53;7707814;32;38703;-85
2023/01/04 19:29:55;;;;;;;12.10;7.25;;;;;;;10.03;58.71;100471.31;7707568;32;37784;-84
2023/01/04 19:34:11;;;;;;;14.50;7.50;;;;;;;10.34;57.87;100458.94;7707270;32;38964;-84
2023/01/04 19:38:27;;;;;;;14.18;8.18;;;;;;;10.25;58.49;100460.44;7707477;32;39574;-84
2023/01/04 19:42:43;;;;;;;13.73;7.45;;;;;;;10.47;57.39;100452.28;7706827;32;37643;-84
2023/01/04 19:46:59;;;;;;;11.30;6.75;;;;;;;10.45;57.63;100466.19;7706439;32;37055;-84
2023/01/04 19:51:16;;;;;;;13.95;7.95;;;;;;;10.64;57.40;100457.63;7706730;32;39985;-84
2023/01/04 19:55:33;;;;;;;14.38;8.18;;;;;;;10.60;57.52;100453.78;7704833;32;40839;-83
2023/01/04 19:59:49;;;;;;;15.65;9.15;;;;;;;10.58;57.74;100442.31;7704245;32;38744;-84
2023/01/04 20:04:06;;;;;;;14.43;8.40;;;;;;;10.49;58.18;100448.22;7706244;32;37094;-83
2023/01/04 20:08:22;;;;;;;16.08;8.32;;;;;;;10.56;58.19;100444.47;7706426;32;38808;-84
2023/01/04 20:12:38;;;;;;;14.75;8.13;;;;;;;10.43;58.92;100432.88;7705988;32;40018;-83
2023/01/04 20:16:54;;;;;;;15.38;7.60;;;;;;;10.61;58.02;100417.28;7706397;32;37932;-84
2023/01/04 20:21:12;;;;;;;16.10;8.65;;;;;;;10.47;58.60;100409.50;7703707;32;37031;-86
2023/01/04 20:25:29;;;;;;;14.68;8.68;;;;;;;10.70;58.22;100400.19;7707039;32;38798;-85
2023/01/04 20:29:45;;;;;;;13.93;8.23;;;;;;;10.70;58.86;100393.91;7710786;32;39876;-83
2023/01/04 20:34:01;;;;;;;13.80;8.07;;;;;;;10.75;58.90;100390.41;7710142;32;38472;-84
2023/01/04 20:38:17;;;;;;;13.68;7.65;;;;;;;10.81;58.59;100381.19;7710042;32;37411;-83
2023/01/04 20:47:09;;;;;;;16.87;8.45;;;;;;;10.76;58.33;100368.31;7708009;32;40489;-84
2023/01/04 20:51:26;;;;;;;15.88;9.05;;;;;;;9.93;60.42;100363.03;7710050;32;38048;-85
2023/01/04 20:55:43;;;;;;;11.80;7.47;;;;;;;10.17;60.15;100349.97;7696835;32;37729;-85
2023/01/04 20:59:59;;;;;;;10.80;7.25;;;;;;;10.26;60.89;100328.53;7708714;32;37600;-84
2023/01/04 21:04:16;;;;;;;13.18;8.10;;;;;;;10.60;59.92;100317.47;7709283;32;40502;-84
2023/01/04 21:08:34;;;;;;;14.77;9.02;;;;;;;10.45;60.07;100313.53;7708708;32;38795;-84
2023/01/04 21:12:50;;;;;;;14.02;7.55;;;;;;;10.41;60.54;100298.75;7708123;32;36937;-85
2023/01/04 21:17:06;;;;;;;13.90;7.75;;;;;;;10.47;60.33;100295.00;7711103;32;39968;-84
2023/01/04 21:21:22;;;;;;;13.35;7.37;;;;;;;10.51;60.21;100274.31;7711760;32;39954;-84
2023/01/04 21:25:40;;;;;;;12.02;7.15;;;;;;;9.73;61.04;100274.59;7709532;32;37890;-84
2023/01/04 21:29:56;;;;;;;12.68;7.28;;;;;;;10.59;58.72;100274.91;7707132;32;37850;-84
2023/01/04 21:34:12;;;;;;;12.95;6.90;;;;;;;10.82;57.73;100255.47;7708780;32;39118;-83
2023/01/04 21:38:35;;;;;;;13.98;7.37;;;;;;;10.77;57.33;100249.16;7707264;32;40147;-85
2023/01/04 21:42:52;;;;;;;12.95;7.72;;;;;;;10.75;57.91;100241.22;7708542;32;38022;-83
2023/01/04 21:47:08;;;;;;;14.55;8.55;;;;;;;10.26;59.61;100257.69;7708583;32;37205;-84
2023/01/04 21:51:24;;;;;;;17.02;9.05;;;;;;;10.66;58.32;100248.28;7709293;32;39617;-84
2023/01/04 21:55:40;;;;;;;15.13;8.40;;;;;;;10.61;58.46;100237.31;7708647;32;40876;-83
2023/01/04 21:59:56;;;;;;;16.10;8.45;;;;;;;10.45;59.10;100245.38;7707057;32;37638;-84
2023/01/04 22:04:13;;;;;;;12.57;7.35;;;;;;;10.80;58.09;100233.09;7708466;32;37061;-83
2023/01/04 22:08:29;;;;;;;11.35;6.95;;;;;;;10.78;58.08;100239.88;7708293;32;39782;-84
2023/01/04 22:12:48;;;;;;;15.02;7.55;;;;;;;10.86;57.79;100232.03;7709091;32;40859;-84
2023/01/04 22:17:04;;;;;;;24.40;14.07;;;;;;;10.63;58.73;100222.34;7708456;32;37466;-84
2023/01/04 22:21:25;;;;;;;21.25;10.75;;;;;;;10.43;58.65;100239.34;7708728;32;37986;-84
2023/01/04 22:25:41;;;;;;;16.92;9.52;;;;;;;10.46;58.50;100219.75;7706732;32;39786;-84
2023/01/04 22:29:57;;;;;;;23.00;11.52;;;;;;;10.32;59.06;100211.19;7706808;32;40075;-84
2023/01/04 22:34:15;;;;;;;30.35;15.88;;;;;;;10.22;59.54;100230.13;7708230;32;38092;-84
2023/01/04 22:38:36;;;;;;;27.85;16.27;;;;;;;10.17;59.44;100223.81;7708217;32;37201;-83
2023/01/04 22:42:53;;;;;;;27.17;15.50;;;;;;;9.38;60.64;100237.69;7708250;32;39312;-84
2023/01/04 22:47:09;;;;;;;21.27;11.70;;;;;;;9.92;59.53;100230.69;7707854;32;40731;-84
2023/01/04 22:51:26;;;;;;;19.23;10.45;;;;;;;9.78;60.85;100222.91;7707545;32;38543;-83
2023/01/04 22:55:42;;;;;;;17.95;9.40;;;;;;;9.80;61.48;100227.28;7708000;32;37088;-83
2023/01/04 23:00:18;;;;;;;20.58;9.45;;;;;;;9.94;61.21;100225.78;7706902;32;40359;-84
2023/01/04 23:04:35;;;;;;;18.02;9.68;;;;;;;9.95;61.61;100228.25;7709041;32;40860;-84
2023/01/04 23:08:59;;;;;;;16.02;9.70;;;;;;;9.98;61.62;100220.66;7709792;32;37979;-84
2023/01/04 23:13:16;;;;;;;16.55;9.68;;;;;;;10.12;61.40;100222.72;7710664;32;37098;-84
2023/01/04 23:17:32;;;;;;;21.15;10.50;;;;;;;10.21;61.07;100219.50;7710478;32;38584;-84
2023/01/04 23:21:48;;;;;;;19.65;11.98;;;;;;;10.06;61.28;100217.47;7710218;32;39903;-84
2023/01/04 23:26:06;;;;;;;18.00;10.80;;;;;;;9.57;63.15;100229.19;7709248;32;38720;-84
2023/01/04 23:30:22;;;;;;;21.70;13.52;;;;;;;9.86;62.48;100226.25;7709754;32;37040;-84
2023/01/04 23:34:38;;;;;;;20.20;11.75;;;;;;;9.71;62.99;100205.12;7709733;32;39371;-84
2023/01/04 23:38:57;;;;;;;16.77;10.55;;;;;;;9.71;63.31;100178.72;7709869;32;40814;-84
2023/01/04 23:43:13;;;;;;;17.85;11.30;;;;;;;9.76;63.53;100159.72;7709370;32;38724;-84
2023/01/04 23:47:30;;;;;;;18.52;10.63;;;;;;;9.78;63.82;100135.78;7709270;32;37903;-84
2023/01/04 23:51:46;;;;;;;17.87;11.27;;;;;;;9.97;63.46;100108.16;7709210;32;39665;-84
2023/01/04 23:56:12;;;;;;;20.58;11.45;;;;;;;10.00;63.42;100098.63;7708566;32;39885;-84
